sensor_id;sensor_type;location;lat;lon;timestamp;P1;durP1;ratioP1;P2;durP2;ratioP2
69034;SDS011;56091;55.756;37.412;2022-11-10T00:04:01;20.50;;;9.83;;
69034;SDS011;56091;55.756;37.412;2022-11-10T00:09:21;19.90;;;9.73;;
69034;SDS011;56091;55.756;37.412;2022-11-10T00:14:40;24.50;;;9.87;;
69034;SDS011;56091;55.756;37.412;2022-11-10T00:20:25;20.33;;;9.90;;
69034;SDS011;56091;55.756;37.412;2022-11-10T00:25:44;18.30;;;9.40;;
69034;SDS011;56091;55.756;37.412;2022-11-10T00:31:04;22.48;;;9.90;;
69034;SDS011;56091;55.756;37.412;2022-11-10T00:36:25;18.87;;;9.37;;
69034;SDS011;56091;55.756;37.412;2022-11-10T00:41:44;20.25;;;9.43;;
69034;SDS011;56091;55.756;37.412;2022-11-10T00:47:04;20.27;;;9.80;;
69034;SDS011;56091;55.756;37.412;2022-11-10T00:52:23;25.00;;;10.50;;
69034;SDS011;56091;55.756;37.412;2022-11-10T00:57:43;22.47;;;10.20;;
69034;SDS011;56091;55.756;37.412;2022-11-10T01:03:02;26.73;;;11.50;;
69034;SDS011;56091;55.756;37.412;2022-11-10T01:08:22;21.67;;;10.43;;
69034;SDS011;56091;55.756;37.412;2022-11-10T01:13:42;24.08;;;9.98;;
69034;SDS011;56091;55.756;37.412;2022-11-10T01:19:01;21.60;;;11.17;;
69034;SDS011;56091;55.756;37.412;2022-11-10T01:24:21;23.42;;;10.68;;
69034;SDS011;56091;55.756;37.412;2022-11-10T01:29:41;20.13;;;9.53;;
69034;SDS011;56091;55.756;37.412;2022-11-10T01:35:00;22.95;;;10.90;;
69034;SDS011;56091;55.756;37.412;2022-11-10T01:40:20;23.47;;;10.93;;
69034;SDS011;56091;55.756;37.412;2022-11-10T01:51:09;24.17;;;10.73;;
69034;SDS011;56091;55.756;37.412;2022-11-10T01:56:35;21.55;;;10.80;;
69034;SDS011;56091;55.756;37.412;2022-11-10T02:02:00;27.53;;;11.17;;
69034;SDS011;56091;55.756;37.412;2022-11-10T02:07:41;24.02;;;11.48;;
69034;SDS011;56091;55.756;37.412;2022-11-10T02:13:00;21.90;;;11.03;;
69034;SDS011;56091;55.756;37.412;2022-11-10T02:18:41;22.58;;;10.80;;
69034;SDS011;56091;55.756;37.412;2022-11-10T02:24:01;22.80;;;11.40;;
69034;SDS011;56091;55.756;37.412;2022-11-10T02:29:21;23.50;;;11.50;;
69034;SDS011;56091;55.756;37.412;2022-11-10T02:34:44;23.07;;;10.87;;
69034;SDS011;56091;55.756;37.412;2022-11-10T02:40:04;23.23;;;10.90;;
69034;SDS011;56091;55.756;37.412;2022-11-10T02:45:24;20.30;;;10.30;;
69034;SDS011;56091;55.756;37.412;2022-11-10T02:50:43;20.17;;;10.73;;
69034;SDS011;56091;55.756;37.412;2022-11-10T02:56:02;23.63;;;11.30;;
69034;SDS011;56091;55.756;37.412;2022-11-10T03:01:23;23.33;;;10.77;;
69034;SDS011;56091;55.756;37.412;2022-11-10T03:06:45;22.23;;;11.30;;
69034;SDS011;56091;55.756;37.412;2022-11-10T03:12:07;23.50;;;11.15;;
69034;SDS011;56091;55.756;37.412;2022-11-10T03:17:26;25.43;;;11.80;;
69034;SDS011;56091;55.756;37.412;2022-11-10T03:22:46;22.33;;;10.50;;
69034;SDS011;56091;55.756;37.412;2022-11-10T03:28:08;25.80;;;11.53;;
69034;SDS011;56091;55.756;37.412;2022-11-10T03:33:27;24.40;;;11.68;;
69034;SDS011;56091;55.756;37.412;2022-11-10T03:38:47;23.83;;;11.43;;
69034;SDS011;56091;55.756;37.412;2022-11-10T03:44:07;23.55;;;11.65;;
69034;SDS011;56091;55.756;37.412;2022-11-10T03:49:26;24.73;;;11.80;;
69034;SDS011;56091;55.756;37.412;2022-11-10T03:54:45;22.17;;;10.90;;
69034;SDS011;56091;55.756;37.412;2022-11-10T04:00:05;23.60;;;11.67;;
69034;SDS011;56091;55.756;37.412;2022-11-10T04:05:25;25.92;;;12.00;;
69034;SDS011;56091;55.756;37.412;2022-11-10T04:11:04;27.47;;;12.10;;
69034;SDS011;56091;55.756;37.412;2022-11-10T04:16:26;26.60;;;12.70;;
69034;SDS011;56091;55.756;37.412;2022-11-10T04:21:46;24.73;;;12.63;;
69034;SDS011;56091;55.756;37.412;2022-11-10T04:27:05;26.27;;;12.77;;
69034;SDS011;56091;55.756;37.412;2022-11-10T04:32:24;26.97;;;12.93;;
69034;SDS011;56091;55.756;37.412;2022-11-10T04:37:44;28.05;;;13.13;;
69034;SDS011;56091;55.756;37.412;2022-11-10T04:43:04;25.00;;;12.73;;
69034;SDS011;56091;55.756;37.412;2022-11-10T04:48:24;26.45;;;12.82;;
69034;SDS011;56091;55.756;37.412;2022-11-10T04:53:44;23.77;;;11.83;;
69034;SDS011;56091;55.756;37.412;2022-11-10T04:59:04;26.30;;;13.10;;
69034;SDS011;56091;55.756;37.412;2022-11-10T05:04:23;28.43;;;14.13;;
69034;SDS011;56091;55.756;37.412;2022-11-10T05:09:42;27.10;;;13.70;;
69034;SDS011;56091;55.756;37.412;2022-11-10T05:15:03;26.90;;;13.70;;
69034;SDS011;56091;55.756;37.412;2022-11-10T05:20:23;24.65;;;12.52;;
69034;SDS011;56091;55.756;37.412;2022-11-10T05:25:43;30.33;;;13.00;;
69034;SDS011;56091;55.756;37.412;2022-11-10T05:31:03;26.80;;;12.68;;
69034;SDS011;56091;55.756;37.412;2022-11-10T05:36:23;27.37;;;12.70;;
69034;SDS011;56091;55.756;37.412;2022-11-10T05:41:42;27.83;;;12.55;;
69034;SDS011;56091;55.756;37.412;2022-11-10T05:47:02;25.03;;;11.63;;
69034;SDS011;56091;55.756;37.412;2022-11-10T05:52:21;23.35;;;11.23;;
69034;SDS011;56091;55.756;37.412;2022-11-10T05:57:45;22.03;;;10.37;;
69034;SDS011;56091;55.756;37.412;2022-11-10T06:03:06;30.38;;;11.70;;
69034;SDS011;56091;55.756;37.412;2022-11-10T06:08:31;26.70;;;12.40;;
69034;SDS011;56091;55.756;37.412;2022-11-10T06:13:50;25.85;;;11.25;;
69034;SDS011;56091;55.756;37.412;2022-11-10T06:19:10;24.77;;;11.20;;
69034;SDS011;56091;55.756;37.412;2022-11-10T06:24:30;26.08;;;11.25;;
69034;SDS011;56091;55.756;37.412;2022-11-10T06:29:50;26.70;;;11.60;;
69034;SDS011;56091;55.756;37.412;2022-11-10T06:35:09;24.13;;;11.05;;
69034;SDS011;56091;55.756;37.412;2022-11-10T06:40:35;25.33;;;11.23;;
69034;SDS011;56091;55.756;37.412;2022-11-10T06:45:55;25.10;;;11.15;;
69034;SDS011;56091;55.756;37.412;2022-11-10T06:51:17;27.13;;;11.03;;
69034;SDS011;56091;55.756;37.412;2022-11-10T06:56:37;23.63;;;11.15;;
69034;SDS011;56091;55.756;37.412;2022-11-10T07:01:56;21.70;;;10.47;;
69034;SDS011;56091;55.756;37.412;2022-11-10T07:07:16;25.67;;;10.65;;
69034;SDS011;56091;55.756;37.412;2022-11-10T07:12:35;22.87;;;10.50;;
69034;SDS011;56091;55.756;37.412;2022-11-10T07:17:54;25.20;;;10.45;;
69034;SDS011;56091;55.756;37.412;2022-11-10T07:23:14;19.57;;;9.60;;
69034;SDS011;56091;55.756;37.412;2022-11-10T07:28:33;26.48;;;10.35;;
69034;SDS011;56091;55.756;37.412;2022-11-10T07:33:55;24.23;;;10.33;;
69034;SDS011;56091;55.756;37.412;2022-11-10T07:39:15;25.08;;;11.13;;
69034;SDS011;56091;55.756;37.412;2022-11-10T07:44:34;23.93;;;10.20;;
69034;SDS011;56091;55.756;37.412;2022-11-10T07:49:53;22.75;;;10.35;;
69034;SDS011;56091;55.756;37.412;2022-11-10T07:55:12;25.80;;;11.53;;
69034;SDS011;56091;55.756;37.412;2022-11-10T08:00:32;25.23;;;10.88;;
69034;SDS011;56091;55.756;37.412;2022-11-10T08:05:52;22.80;;;11.43;;
69034;SDS011;56091;55.756;37.412;2022-11-10T08:11:11;26.17;;;11.13;;
69034;SDS011;56091;55.756;37.412;2022-11-10T08:16:30;26.17;;;12.33;;
69034;SDS011;56091;55.756;37.412;2022-11-10T08:21:49;28.30;;;12.32;;
69034;SDS011;56091;55.756;37.412;2022-11-10T08:27:09;27.07;;;12.37;;
69034;SDS011;56091;55.756;37.412;2022-11-10T08:32:28;28.67;;;12.73;;
69034;SDS011;56091;55.756;37.412;2022-11-10T08:37:47;29.27;;;12.80;;
69034;SDS011;56091;55.756;37.412;2022-11-10T08:43:07;27.58;;;12.60;;
69034;SDS011;56091;55.756;37.412;2022-11-10T08:48:27;29.43;;;12.87;;
69034;SDS011;56091;55.756;37.412;2022-11-10T08:53:46;26.73;;;13.07;;
69034;SDS011;56091;55.756;37.412;2022-11-10T08:59:05;39.67;;;13.53;;
69034;SDS011;56091;55.756;37.412;2022-11-10T09:04:24;34.22;;;12.80;;
69034;SDS011;56091;55.756;37.412;2022-11-10T09:09:44;38.00;;;14.70;;
69034;SDS011;56091;55.756;37.412;2022-11-10T09:15:04;33.05;;;13.20;;
69034;SDS011;56091;55.756;37.412;2022-11-10T09:20:24;29.80;;;12.47;;
69034;SDS011;56091;55.756;37.412;2022-11-10T09:25:49;26.27;;;13.23;;
69034;SDS011;56091;55.756;37.412;2022-11-10T09:31:10;29.00;;;13.27;;
69034;SDS011;56091;55.756;37.412;2022-11-10T09:36:30;31.95;;;12.63;;
69034;SDS011;56091;55.756;37.412;2022-11-10T09:41:49;29.43;;;13.13;;
69034;SDS011;56091;55.756;37.412;2022-11-10T09:47:10;29.25;;;12.90;;
69034;SDS011;56091;55.756;37.412;2022-11-10T09:52:38;26.83;;;13.10;;
69034;SDS011;56091;55.756;37.412;2022-11-10T09:57:58;27.58;;;12.40;;
69034;SDS011;56091;55.756;37.412;2022-11-10T10:03:18;34.47;;;13.87;;
69034;SDS011;56091;55.756;37.412;2022-11-10T10:19:59;31.55;;;13.85;;
69034;SDS011;56091;55.756;37.412;2022-11-10T10:25:35;31.80;;;14.40;;
69034;SDS011;56091;55.756;37.412;2022-11-10T10:31:05;32.95;;;14.30;;
69034;SDS011;56091;55.756;37.412;2022-11-10T10:36:36;31.43;;;14.27;;
69034;SDS011;56091;55.756;37.412;2022-11-10T10:41:56;31.38;;;14.30;;
69034;SDS011;56091;55.756;37.412;2022-11-10T10:47:15;30.60;;;14.13;;
69034;SDS011;56091;55.756;37.412;2022-11-10T10:52:35;30.58;;;13.50;;
69034;SDS011;56091;55.756;37.412;2022-11-10T10:57:58;35.83;;;14.20;;
69034;SDS011;56091;55.756;37.412;2022-11-10T11:08:59;30.37;;;13.10;;
69034;SDS011;56091;55.756;37.412;2022-11-10T11:14:26;30.70;;;13.27;;
69034;SDS011;56091;55.756;37.412;2022-11-10T11:19:47;31.47;;;13.73;;
69034;SDS011;56091;55.756;37.412;2022-11-10T11:25:21;31.58;;;13.48;;
69034;SDS011;56091;55.756;37.412;2022-11-10T11:30:56;29.90;;;13.37;;
69034;SDS011;56091;55.756;37.412;2022-11-10T11:42:30;31.17;;;13.53;;
69034;SDS011;56091;55.756;37.412;2022-11-10T11:48:17;32.78;;;13.38;;
69034;SDS011;56091;55.756;37.412;2022-11-10T11:53:41;28.77;;;13.60;;
69034;SDS011;56091;55.756;37.412;2022-11-10T12:16:30;31.23;;;13.33;;
69034;SDS011;56091;55.756;37.412;2022-11-10T12:21:56;27.13;;;12.30;;
69034;SDS011;56091;55.756;37.412;2022-11-10T12:27:32;35.53;;;14.50;;
69034;SDS011;56091;55.756;37.412;2022-11-10T12:32:58;30.95;;;13.10;;
69034;SDS011;56091;55.756;37.412;2022-11-10T12:38:33;34.63;;;14.20;;
69034;SDS011;56091;55.756;37.412;2022-11-10T12:44:36;32.83;;;14.07;;
69034;SDS011;56091;55.756;37.412;2022-11-10T12:50:16;32.03;;;13.53;;
69034;SDS011;56091;55.756;37.412;2022-11-10T12:56:23;29.70;;;13.68;;
69034;SDS011;56091;55.756;37.412;2022-11-10T13:01:48;26.73;;;12.90;;
69034;SDS011;56091;55.756;37.412;2022-11-10T13:07:14;31.42;;;13.18;;
69034;SDS011;56091;55.756;37.412;2022-11-10T13:12:58;35.03;;;13.57;;
69034;SDS011;56091;55.756;37.412;2022-11-10T13:34:45;31.97;;;13.37;;
69034;SDS011;56091;55.756;37.412;2022-11-10T13:51:02;29.40;;;12.80;;
69034;SDS011;56091;55.756;37.412;2022-11-10T14:08:06;30.23;;;13.03;;
69034;SDS011;56091;55.756;37.412;2022-11-10T14:13:44;33.13;;;13.50;;
69034;SDS011;56091;55.756;37.412;2022-11-10T14:24:38;34.25;;;14.60;;
69034;SDS011;56091;55.756;37.412;2022-11-10T14:30:25;32.03;;;15.00;;
69034;SDS011;56091;55.756;37.412;2022-11-10T14:35:49;36.00;;;15.55;;
69034;SDS011;56091;55.756;37.412;2022-11-10T14:41:19;37.70;;;15.47;;
69034;SDS011;56091;55.756;37.412;2022-11-10T14:46:40;34.63;;;14.38;;
69034;SDS011;56091;55.756;37.412;2022-11-10T14:52:00;35.17;;;15.07;;
69034;SDS011;56091;55.756;37.412;2022-11-10T14:57:19;35.67;;;15.57;;
69034;SDS011;56091;55.756;37.412;2022-11-10T15:02:39;34.00;;;14.23;;
69034;SDS011;56091;55.756;37.412;2022-11-10T15:07:58;37.28;;;16.35;;
69034;SDS011;56091;55.756;37.412;2022-11-10T15:13:41;32.80;;;15.00;;
69034;SDS011;56091;55.756;37.412;2022-11-10T15:24:42;37.27;;;15.97;;
69034;SDS011;56091;55.756;37.412;2022-11-10T15:30:15;36.50;;;16.17;;
69034;SDS011;56091;55.756;37.412;2022-11-10T15:36:10;37.93;;;15.93;;
69034;SDS011;56091;55.756;37.412;2022-11-10T15:41:36;35.15;;;15.70;;
69034;SDS011;56091;55.756;37.412;2022-11-10T15:47:04;34.40;;;14.80;;
69034;SDS011;56091;55.756;37.412;2022-11-10T15:52:24;35.78;;;15.10;;
69034;SDS011;56091;55.756;37.412;2022-11-10T15:57:44;35.90;;;15.93;;
69034;SDS011;56091;55.756;37.412;2022-11-10T16:03:03;36.97;;;16.10;;
69034;SDS011;56091;55.756;37.412;2022-11-10T16:08:28;37.80;;;15.23;;
69034;SDS011;56091;55.756;37.412;2022-11-10T16:13:50;40.00;;;15.70;;
69034;SDS011;56091;55.756;37.412;2022-11-10T16:19:11;37.90;;;15.00;;
69034;SDS011;56091;55.756;37.412;2022-11-10T16:24:31;38.33;;;16.25;;
69034;SDS011;56091;55.756;37.412;2022-11-10T16:29:50;38.00;;;16.27;;
69034;SDS011;56091;55.756;37.412;2022-11-10T16:35:12;37.72;;;17.00;;
69034;SDS011;56091;55.756;37.412;2022-11-10T16:40:32;38.50;;;16.80;;
69034;SDS011;56091;55.756;37.412;2022-11-10T16:45:55;40.72;;;16.33;;
69034;SDS011;56091;55.756;37.412;2022-11-10T16:51:16;43.13;;;16.90;;
69034;SDS011;56091;55.756;37.412;2022-11-10T16:56:36;44.40;;;17.48;;
69034;SDS011;56091;55.756;37.412;2022-11-10T17:01:56;41.40;;;16.90;;
69034;SDS011;56091;55.756;37.412;2022-11-10T17:07:15;37.17;;;15.65;;
69034;SDS011;56091;55.756;37.412;2022-11-10T17:12:37;41.73;;;17.07;;
69034;SDS011;56091;55.756;37.412;2022-11-10T17:17:56;55.92;;;17.80;;
69034;SDS011;56091;55.756;37.412;2022-11-10T17:23:22;43.57;;;16.47;;
69034;SDS011;56091;55.756;37.412;2022-11-10T17:28:42;40.85;;;16.52;;
69034;SDS011;56091;55.756;37.412;2022-11-10T17:34:01;43.17;;;15.97;;
69034;SDS011;56091;55.756;37.412;2022-11-10T17:39:21;48.85;;;16.85;;
69034;SDS011;56091;55.756;37.412;2022-11-10T17:44:41;40.27;;;16.00;;
69034;SDS011;56091;55.756;37.412;2022-11-10T17:50:00;34.22;;;14.20;;
69034;SDS011;56091;55.756;37.412;2022-11-10T17:55:21;42.43;;;15.77;;
69034;SDS011;56091;55.756;37.412;2022-11-10T18:00:42;36.65;;;14.32;;
69034;SDS011;56091;55.756;37.412;2022-11-10T18:06:06;33.43;;;14.30;;
69034;SDS011;56091;55.756;37.412;2022-11-10T18:11:25;35.03;;;13.60;;
69034;SDS011;56091;55.756;37.412;2022-11-10T18:16:44;35.43;;;14.07;;
69034;SDS011;56091;55.756;37.412;2022-11-10T18:22:04;29.88;;;12.07;;
69034;SDS011;56091;55.756;37.412;2022-11-10T18:27:24;34.97;;;13.63;;
69034;SDS011;56091;55.756;37.412;2022-11-10T18:32:46;38.15;;;13.07;;
69034;SDS011;56091;55.756;37.412;2022-11-10T18:38:05;30.73;;;12.40;;
69034;SDS011;56091;55.756;37.412;2022-11-10T18:43:26;34.85;;;13.00;;
69034;SDS011;56091;55.756;37.412;2022-11-10T18:48:46;32.13;;;13.10;;
69034;SDS011;56091;55.756;37.412;2022-11-10T18:54:05;32.08;;;12.65;;
69034;SDS011;56091;55.756;37.412;2022-11-10T18:59:26;40.47;;;13.87;;
69034;SDS011;56091;55.756;37.412;2022-11-10T19:04:45;37.08;;;12.98;;
69034;SDS011;56091;55.756;37.412;2022-11-10T19:10:05;36.00;;;13.13;;
69034;SDS011;56091;55.756;37.412;2022-11-10T19:15:29;44.70;;;14.65;;
69034;SDS011;56091;55.756;37.412;2022-11-10T19:20:48;34.23;;;14.47;;
69034;SDS011;56091;55.756;37.412;2022-11-10T19:26:14;34.83;;;13.23;;
69034;SDS011;56091;55.756;37.412;2022-11-10T19:31:38;37.17;;;14.27;;
69034;SDS011;56091;55.756;37.412;2022-11-10T19:36:57;38.17;;;13.63;;
69034;SDS011;56091;55.756;37.412;2022-11-10T19:42:17;33.13;;;13.90;;
69034;SDS011;56091;55.756;37.412;2022-11-10T19:47:36;37.25;;;14.55;;
69034;SDS011;56091;55.756;37.412;2022-11-10T19:52:55;37.03;;;14.87;;
69034;SDS011;56091;55.756;37.412;2022-11-10T19:58:15;38.83;;;14.55;;
69034;SDS011;56091;55.756;37.412;2022-11-10T20:03:34;38.63;;;14.37;;
69034;SDS011;56091;55.756;37.412;2022-11-10T20:08:53;39.03;;;15.07;;
69034;SDS011;56091;55.756;37.412;2022-11-10T20:14:13;34.43;;;13.87;;
69034;SDS011;56091;55.756;37.412;2022-11-10T20:19:35;44.83;;;15.45;;
69034;SDS011;56091;55.756;37.412;2022-11-10T20:24:56;36.53;;;14.87;;
69034;SDS011;56091;55.756;37.412;2022-11-10T20:30:16;35.97;;;14.38;;
69034;SDS011;56091;55.756;37.412;2022-11-10T20:35:39;36.07;;;14.20;;
69034;SDS011;56091;55.756;37.412;2022-11-10T20:41:04;39.25;;;15.18;;
69034;SDS011;56091;55.756;37.412;2022-11-10T20:46:29;40.83;;;15.23;;
69034;SDS011;56091;55.756;37.412;2022-11-10T20:51:48;38.90;;;14.48;;
69034;SDS011;56091;55.756;37.412;2022-11-10T20:57:10;39.60;;;14.80;;
69034;SDS011;56091;55.756;37.412;2022-11-10T21:02:29;33.65;;;12.00;;
69034;SDS011;56091;55.756;37.412;2022-11-10T21:07:48;36.60;;;15.20;;
69034;SDS011;56091;55.756;37.412;2022-11-10T21:13:08;40.13;;;14.05;;
69034;SDS011;56091;55.756;37.412;2022-11-10T21:18:31;34.33;;;14.30;;
69034;SDS011;56091;55.756;37.412;2022-11-10T21:23:52;36.15;;;14.68;;
69034;SDS011;56091;55.756;37.412;2022-11-10T21:29:15;39.80;;;16.73;;
69034;SDS011;56091;55.756;37.412;2022-11-10T21:34:34;38.97;;;15.55;;
69034;SDS011;56091;55.756;37.412;2022-11-10T21:39:54;41.13;;;16.27;;
69034;SDS011;56091;55.756;37.412;2022-11-10T21:45:14;42.50;;;15.60;;
69034;SDS011;56091;55.756;37.412;2022-11-10T21:50:36;41.73;;;16.23;;
69034;SDS011;56091;55.756;37.412;2022-11-10T21:55:56;40.83;;;16.17;;
69034;SDS011;56091;55.756;37.412;2022-11-10T22:01:18;40.37;;;16.43;;
69034;SDS011;56091;55.756;37.412;2022-11-10T22:06:38;42.95;;;16.15;;
69034;SDS011;56091;55.756;37.412;2022-11-10T22:12:16;43.27;;;17.23;;
69034;SDS011;56091;55.756;37.412;2022-11-10T22:17:55;49.80;;;17.00;;
69034;SDS011;56091;55.756;37.412;2022-11-10T22:23:33;46.10;;;17.30;;
69034;SDS011;56091;55.756;37.412;2022-11-10T22:29:11;47.15;;;17.20;;
69034;SDS011;56091;55.756;37.412;2022-11-10T22:34:31;44.23;;;16.87;;
69034;SDS011;56091;55.756;37.412;2022-11-10T22:39:50;51.65;;;18.83;;
69034;SDS011;56091;55.756;37.412;2022-11-10T22:45:29;50.13;;;17.70;;
69034;SDS011;56091;55.756;37.412;2022-11-10T22:50:52;49.42;;;17.33;;
69034;SDS011;56091;55.756;37.412;2022-11-10T22:56:12;43.97;;;16.80;;
69034;SDS011;56091;55.756;37.412;2022-11-10T23:01:32;49.33;;;18.33;;
69034;SDS011;56091;55.756;37.412;2022-11-10T23:06:52;44.40;;;17.53;;
69034;SDS011;56091;55.756;37.412;2022-11-10T23:12:11;43.75;;;15.98;;
69034;SDS011;56091;55.756;37.412;2022-11-10T23:17:30;48.93;;;18.37;;
69034;SDS011;56091;55.756;37.412;2022-11-10T23:22:53;46.40;;;17.83;;
69034;SDS011;56091;55.756;37.412;2022-11-10T23:28:13;50.77;;;18.17;;
69034;SDS011;56091;55.756;37.412;2022-11-10T23:33:35;49.35;;;18.55;;
69034;SDS011;56091;55.756;37.412;2022-11-10T23:38:55;50.43;;;19.10;;
69034;SDS011;56091;55.756;37.412;2022-11-10T23:44:15;50.15;;;17.88;;
69034;SDS011;56091;55.756;37.412;2022-11-10T23:49:34;56.80;;;20.10;;
69034;SDS011;56091;55.756;37.412;2022-11-10T23:54:54;55.72;;;19.60;;
